Time;durP1;ratioP1;P1;durP2;ratioP2;P2;SDS_P1;SDS_P2;PMS_P1;PMS_P2;Temp;Humidity;BMP_temperature;BMP_pressure;BME280_temperature;BME280_humidity;BME280_pressure;Samples;Min_cycle;Max_cycle;Signal;HPM_P1;HPM_P2
2022/08/30 00:01:23;;;;;;;2.10;1.90;;;;;;;;;;5034752;28;20576;-77
2022/08/30 00:03:50;;;;;;;5.07;2.00;;;;;;;;;;5050967;28;20268;-77
2022/08/30 00:06:17;;;;;;;2.90;1.73;;;;;;;;;;5050657;28;20177;-77
2022/08/30 00:08:44;;;;;;;2.60;1.80;;;;;;;;;;5034432;28;20188;-77
2022/08/30 00:11:12;;;;;;;4.00;1.80;;;;;;;;;;5051101;28;20225;-77
2022/08/30 00:13:39;;;;;;;2.40;1.80;;;;;;;;;;5034752;28;20185;-77
2022/08/30 00:16:05;;;;;;;3.97;2.03;;;;;;;;;;5050970;28;20177;-77
2022/08/30 00:18:32;;;;;;;2.13;1.70;;;;;;;;;;5034379;28;20205;-77
2022/08/30 00:20:58;;;;;;;2.90;1.60;;;;;;;;;;5051129;28;20184;-77
2022/08/30 00:23:24;;;;;;;3.13;1.70;;;;;;;;;;5050992;28;20264;-77
2022/08/30 00:25:50;;;;;;;2.93;1.77;;;;;;;;;;5050962;28;20173;-77
2022/08/30 00:28:16;;;;;;;2.20;1.70;;;;;;;;;;5050866;28;20177;-77
2022/08/30 00:30:43;;;;;;;2.27;1.70;;;;;;;;;;5050790;28;20188;-77
2022/08/30 00:33:10;;;;;;;3.33;1.80;;;;;;;;;;5050747;28;20212;-77
2022/08/30 00:35:37;;;;;;;3.00;1.90;;;;;;;;;;5050910;28;20180;-77
2022/08/30 00:38:03;;;;;;;2.37;1.80;;;;;;;;;;5052110;28;20531;-77
2022/08/30 00:40:29;;;;;;;3.40;2.20;;;;;;;;;;5050786;28;20183;-77
2022/08/30 00:42:57;;;;;;;3.57;1.87;;;;;;;;;;5034401;28;20208;-77
2022/08/30 00:45:25;;;;;;;2.93;1.90;;;;;;;;;;5034473;28;20192;-77
2022/08/30 00:47:51;;;;;;;2.47;1.77;;;;;;;;;;5050436;28;20670;-77
2022/08/30 00:50:20;;;;;;;1.83;1.60;;;;;;;;;;5050721;28;20548;-77
2022/08/30 00:52:48;;;;;;;3.50;1.83;;;;;;;;;;5050535;28;20255;-77
2022/08/30 00:55:15;;;;;;;3.83;1.93;;;;;;;;;;5050644;28;20238;-77
2022/08/30 00:57:42;;;;;;;2.80;1.87;;;;;;;;;;5050426;28;20178;-77
2022/08/30 01:00:09;;;;;;;2.97;1.83;;;;;;;;;;5050633;28;20287;-77
2022/08/30 01:02:35;;;;;;;1.97;1.60;;;;;;;;;;5050519;28;20632;-77
2022/08/30 01:05:02;;;;;;;2.20;1.70;;;;;;;;;;5050599;28;20186;-77
2022/08/30 01:07:28;;;;;;;2.33;1.60;;;;;;;;;;5050288;28;20232;-77
2022/08/30 01:09:54;;;;;;;2.03;1.73;;;;;;;;;;5034180;28;20185;-77
2022/08/30 01:12:22;;;;;;;2.13;1.70;;;;;;;;;;5050356;28;20688;-77
2022/08/30 01:14:49;;;;;;;2.23;1.80;;;;;;;;;;5050367;28;20188;-77
2022/08/30 01:17:16;;;;;;;2.80;2.03;;;;;;;;;;5050514;28;20180;-77
2022/08/30 01:19:46;;;;;;;2.33;1.67;;;;;;;;;;5038076;28;20174;-77
2022/08/30 01:22:21;;;;;;;4.70;2.10;;;;;;;;;;5054362;28;20223;-77
2022/08/30 01:24:48;;;;;;;2.97;1.90;;;;;;;;;;5055310;28;20303;-77
2022/08/30 01:27:15;;;;;;;3.93;2.30;;;;;;;;;;5053856;28;20268;-77
2022/08/30 01:29:43;;;;;;;3.47;2.00;;;;;;;;;;5037369;28;20186;-77
2022/08/30 01:32:17;;;;;;;3.97;1.80;;;;;;;;;;5053825;28;20323;-77
2022/08/30 01:34:43;;;;;;;3.33;1.73;;;;;;;;;;5054026;28;20713;-77
2022/08/30 01:37:09;;;;;;;2.60;1.80;;;;;;;;;;5053805;28;20176;-77
2022/08/30 01:39:35;;;;;;;3.30;1.93;;;;;;;;;;5037329;28;20188;-76
2022/08/30 01:42:01;;;;;;;2.67;1.73;;;;;;;;;;5037287;28;20698;-76
2022/08/30 01:44:33;;;;;;;3.70;1.90;;;;;;;;;;5053658;28;20200;-76
2022/08/30 01:46:59;;;;;;;3.03;1.80;;;;;;;;;;5037436;28;20642;-76
2022/08/30 01:49:25;;;;;;;3.03;1.93;;;;;;;;;;5037448;28;20186;-76
2022/08/30 01:51:51;;;;;;;5.03;2.03;;;;;;;;;;5037327;28;20547;-76
2022/08/30 01:54:17;;;;;;;2.17;1.83;;;;;;;;;;5053896;28;20180;-76
2022/08/30 01:56:43;;;;;;;3.40;1.77;;;;;;;;;;5037452;28;20196;-76
2022/08/30 01:59:09;;;;;;;2.93;1.73;;;;;;;;;;5037362;28;20174;-76
2022/08/30 02:01:38;;;;;;;2.60;1.80;;;;;;;;;;5037150;28;20578;-76
2022/08/30 02:04:05;;;;;;;2.33;1.83;;;;;;;;;;5055035;28;20200;-76
2022/08/30 02:06:31;;;;;;;2.20;1.80;;;;;;;;;;5053995;28;20177;-76
2022/08/30 02:08:57;;;;;;;2.23;2.03;;;;;;;;;;5050239;28;20189;-76
2022/08/30 02:11:24;;;;;;;2.60;2.00;;;;;;;;;;5053618;28;20209;-76
2022/08/30 02:13:50;;;;;;;3.03;2.03;;;;;;;;;;5054000;28;20265;-76
2022/08/30 02:16:18;;;;;;;2.37;1.90;;;;;;;;;;5053676;28;20259;-76
2022/08/30 02:18:44;;;;;;;2.27;1.87;;;;;;;;;;5053400;28;20173;-76
2022/08/30 02:21:12;;;;;;;3.37;2.00;;;;;;;;;;5053625;28;20683;-76
2022/08/30 02:23:38;;;;;;;3.03;1.97;;;;;;;;;;5037266;28;20215;-76
2022/08/30 02:26:04;;;;;;;2.10;1.80;;;;;;;;;;5037239;28;20189;-76
2022/08/30 02:28:30;;;;;;;2.70;2.00;;;;;;;;;;5053241;28;20177;-76
2022/08/30 02:30:56;;;;;;;3.43;2.30;;;;;;;;;;5036200;28;20189;-76
2022/08/30 02:33:22;;;;;;;2.87;1.70;;;;;;;;;;5052614;28;20206;-76
2022/08/30 02:35:48;;;;;;;2.83;1.80;;;;;;;;;;5036712;28;20196;-76
2022/08/30 02:38:14;;;;;;;3.20;2.17;;;;;;;;;;5053303;28;20179;-76
2022/08/30 02:40:40;;;;;;;3.03;2.10;;;;;;;;;;5036607;28;20181;-76
2022/08/30 02:43:06;;;;;;;2.83;2.00;;;;;;;;;;5036442;28;20676;-76
2022/08/30 02:45:32;;;;;;;2.20;1.80;;;;;;;;;;5036606;28;20229;-76
2022/08/30 02:47:58;;;;;;;3.60;1.90;;;;;;;;;;5036781;28;20232;-76
2022/08/30 02:50:25;;;;;;;3.03;1.87;;;;;;;;;;5036642;28;20272;-76
2022/08/30 02:52:51;;;;;;;3.37;2.10;;;;;;;;;;5052796;28;20210;-76
2022/08/30 02:55:17;;;;;;;2.83;2.07;;;;;;;;;;5053142;28;20275;-76
2022/08/30 02:57:43;;;;;;;2.83;1.87;;;;;;;;;;5052993;28;20232;-76
2022/08/30 03:00:12;;;;;;;3.13;1.87;;;;;;;;;;5052758;28;20242;-76
2022/08/30 03:02:39;;;;;;;2.90;1.93;;;;;;;;;;5053935;28;20238;-76
2022/08/30 03:05:05;;;;;;;3.50;2.07;;;;;;;;;;5036370;28;20220;-76
2022/08/30 03:07:31;;;;;;;2.60;2.03;;;;;;;;;;5052661;28;20177;-76
2022/08/30 03:09:57;;;;;;;4.00;1.90;;;;;;;;;;5036601;28;20208;-76
2022/08/30 03:12:24;;;;;;;2.83;1.63;;;;;;;;;;5035963;28;20255;-76
2022/08/30 03:14:50;;;;;;;3.10;2.10;;;;;;;;;;5052771;28;20670;-76
2022/08/30 03:17:17;;;;;;;3.10;1.80;;;;;;;;;;5031580;28;20185;-76
2022/08/30 03:19:43;;;;;;;2.67;1.80;;;;;;;;;;5052753;28;20201;-76
2022/08/30 03:22:09;;;;;;;2.37;2.10;;;;;;;;;;5053584;28;20222;-76
2022/08/30 03:24:35;;;;;;;2.37;1.97;;;;;;;;;;5052632;28;20190;-76
2022/08/30 03:27:02;;;;;;;3.77;1.90;;;;;;;;;;5052350;28;20189;-76
2022/08/30 03:29:31;;;;;;;2.83;1.90;;;;;;;;;;5052322;28;20188;-76
2022/08/30 03:31:57;;;;;;;3.23;2.30;;;;;;;;;;5052213;28;20225;-76
2022/08/30 03:34:24;;;;;;;1.87;1.60;;;;;;;;;;5036092;28;20206;-76
2022/08/30 03:36:51;;;;;;;2.83;2.10;;;;;;;;;;5052121;28;20173;-76
2022/08/30 03:39:17;;;;;;;3.40;2.10;;;;;;;;;;5035935;28;20179;-76
2022/08/30 03:41:44;;;;;;;2.97;2.00;;;;;;;;;;5051956;28;20197;-76
2022/08/30 03:44:10;;;;;;;4.17;2.00;;;;;;;;;;5052408;28;20178;-76
2022/08/30 03:46:36;;;;;;;2.60;1.80;;;;;;;;;;5035401;28;20188;-76
2022/08/30 03:49:03;;;;;;;2.80;2.00;;;;;;;;;;5035754;28;20209;-76
2022/08/30 03:51:29;;;;;;;2.83;2.13;;;;;;;;;;5051789;28;20195;-76
2022/08/30 03:53:54;;;;;;;2.90;2.00;;;;;;;;;;5035453;28;20546;-76
2022/08/30 03:56:20;;;;;;;4.67;2.00;;;;;;;;;;5051527;28;20182;-76
2022/08/30 03:58:47;;;;;;;2.27;1.90;;;;;;;;;;5035223;28;20178;-76
2022/08/30 04:01:12;;;;;;;2.30;1.77;;;;;;;;;;5051867;28;20185;-76
2022/08/30 04:03:38;;;;;;;2.13;1.90;;;;;;;;;;5035656;28;20182;-76
2022/08/30 04:06:05;;;;;;;2.87;2.07;;;;;;;;;;5035500;28;20604;-76
2022/08/30 04:08:31;;;;;;;3.33;2.10;;;;;;;;;;5051535;28;20187;-76
2022/08/30 04:10:57;;;;;;;2.67;2.00;;;;;;;;;;5035392;28;20181;-76
2022/08/30 04:13:24;;;;;;;2.60;1.90;;;;;;;;;;5051474;28;20660;-76
2022/08/30 04:15:50;;;;;;;2.90;1.90;;;;;;;;;;5051821;28;20178;-76
2022/08/30 04:18:16;;;;;;;2.63;2.13;;;;;;;;;;5035107;28;20193;-76
2022/08/30 04:20:42;;;;;;;2.53;2.10;;;;;;;;;;5051662;28;20173;-76
2022/08/30 04:23:08;;;;;;;2.73;2.10;;;;;;;;;;5051729;28;20181;-76
2022/08/30 04:25:35;;;;;;;2.80;2.03;;;;;;;;;;5051795;28;20182;-76
2022/08/30 04:28:01;;;;;;;3.13;2.20;;;;;;;;;;5035009;28;20192;-76
2022/08/30 04:30:27;;;;;;;2.87;2.20;;;;;;;;;;5035213;28;20605;-76
2022/08/30 04:32:53;;;;;;;4.03;2.20;;;;;;;;;;5089487;22;20286;-75
2022/08/30 04:35:19;;;;;;;3.47;2.33;;;;;;;;;;5034434;28;20182;-76
2022/08/30 04:37:45;;;;;;;3.47;2.40;;;;;;;;;;5050889;28;20174;-75
2022/08/30 04:40:12;;;;;;;2.63;2.10;;;;;;;;;;5050926;28;20192;-75
2022/08/30 04:42:39;;;;;;;2.60;2.10;;;;;;;;;;5050590;28;20315;-75
2022/08/30 04:45:06;;;;;;;3.50;2.40;;;;;;;;;;5034244;28;20192;-75
2022/08/30 04:47:32;;;;;;;2.83;2.30;;;;;;;;;;5051996;28;20571;-75
2022/08/30 04:49:58;;;;;;;4.00;2.33;;;;;;;;;;5051806;28;20705;-75
2022/08/30 04:52:24;;;;;;;3.83;2.37;;;;;;;;;;5051010;28;20309;-75
2022/08/30 04:54:54;;;;;;;3.07;2.03;;;;;;;;;;5038125;28;20245;-75
2022/08/30 04:57:21;;;;;;;3.87;2.00;;;;;;;;;;5038129;28;20178;-75
2022/08/30 04:59:47;;;;;;;4.00;2.53;;;;;;;;;;5054482;28;20174;-75
2022/08/30 05:02:13;;;;;;;3.87;2.10;;;;;;;;;;5037833;28;20568;-75
2022/08/30 05:05:38;;;;;;;3.03;2.10;;;;;;;;;;5054555;28;20184;-75
2022/08/30 05:07:25;;;;;;;3.47;2.00;;;;;;;;;;5054308;28;20181;-77
2022/08/30 05:09:51;;;;;;;3.00;2.20;;;;;;;;;;5038040;28;20240;-76
2022/08/30 05:12:17;;;;;;;3.53;2.40;;;;;;;;;;5037529;28;20226;-76
2022/08/30 05:14:43;;;;;;;4.73;2.90;;;;;;;;;;5038072;28;20206;-76
2022/08/30 05:17:09;;;;;;;3.37;2.60;;;;;;;;;;5035272;28;20194;-76
2022/08/30 05:19:35;;;;;;;2.50;2.20;;;;;;;;;;5054232;28;20208;-76
2022/08/30 05:22:01;;;;;;;3.97;2.40;;;;;;;;;;5054181;28;20252;-76
2022/08/30 05:24:27;;;;;;;4.20;2.40;;;;;;;;;;5037922;28;20189;-76
2022/08/30 05:26:52;;;;;;;3.20;2.10;;;;;;;;;;5037376;28;20223;-75
2022/08/30 05:29:19;;;;;;;3.03;2.10;;;;;;;;;;5037503;28;20188;-76
2022/08/30 05:31:45;;;;;;;2.93;2.20;;;;;;;;;;5037489;28;20224;-75
2022/08/30 05:34:11;;;;;;;2.40;2.17;;;;;;;;;;5053861;28;20645;-75
2022/08/30 05:36:37;;;;;;;4.20;2.40;;;;;;;;;;5037149;28;20635;-75
2022/08/30 05:39:04;;;;;;;3.10;2.20;;;;;;;;;;5037311;28;20272;-76
2022/08/30 05:41:30;;;;;;;2.93;2.30;;;;;;;;;;5053607;28;20254;-76
2022/08/30 05:43:57;;;;;;;3.73;2.23;;;;;;;;;;5039096;28;20174;-77
2022/08/30 05:46:24;;;;;;;2.87;2.00;;;;;;;;;;5053842;28;20188;-76
2022/08/30 05:48:50;;;;;;;2.73;2.00;;;;;;;;;;5053970;28;20174;-75
2022/08/30 05:51:18;;;;;;;5.10;2.20;;;;;;;;;;5055039;28;20253;-75
2022/08/30 05:53:45;;;;;;;3.57;2.10;;;;;;;;;;5036999;28;20324;-75
2022/08/30 05:56:12;;;;;;;2.53;2.00;;;;;;;;;;5053251;28;20636;-75
2022/08/30 05:58:38;;;;;;;3.40;2.20;;;;;;;;;;5036916;28;20182;-75
2022/08/30 06:01:04;;;;;;;3.57;2.40;;;;;;;;;;5053217;28;20174;-76
2022/08/30 06:03:34;;;;;;;3.10;2.30;;;;;;;;;;5052989;28;20205;-75
2022/08/30 06:06:00;;;;;;;3.60;2.73;;;;;;;;;;5052770;28;20235;-75
2022/08/30 06:08:26;;;;;;;4.20;2.80;;;;;;;;;;5052780;28;20181;-76
2022/08/30 06:10:52;;;;;;;4.73;2.80;;;;;;;;;;5037487;28;20177;-76
2022/08/30 06:13:18;;;;;;;3.17;2.50;;;;;;;;;;5051148;28;20240;-75
2022/08/30 06:15:45;;;;;;;4.87;2.83;;;;;;;;;;5035448;28;20177;-75
2022/08/30 06:18:12;;;;;;;5.40;2.77;;;;;;;;;;5035918;28;20175;-75
2022/08/30 06:20:40;;;;;;;4.40;2.90;;;;;;;;;;5052215;28;20174;-76
2022/08/30 06:23:06;;;;;;;3.90;3.10;;;;;;;;;;5053469;28;20186;-75
2022/08/30 06:25:32;;;;;;;4.70;3.00;;;;;;;;;;5035803;28;20192;-75
2022/08/30 06:27:58;;;;;;;4.70;3.10;;;;;;;;;;5036140;28;20598;-76
2022/08/30 06:30:24;;;;;;;4.83;3.00;;;;;;;;;;5052928;28;20250;-75
2022/08/30 06:32:50;;;;;;;8.20;4.00;;;;;;;;;;5053731;28;20687;-75
2022/08/30 06:35:15;;;;;;;6.73;3.40;;;;;;;;;;5035646;28;20174;-75
2022/08/30 06:37:42;;;;;;;4.30;3.40;;;;;;;;;;5030122;28;20181;-75
2022/08/30 06:40:08;;;;;;;3.83;3.20;;;;;;;;;;5036352;28;20179;-75
2022/08/30 06:42:34;;;;;;;4.33;3.20;;;;;;;;;;5052589;28;20292;-75
2022/08/30 06:45:01;;;;;;;4.13;2.83;;;;;;;;;;5036218;28;20272;-78
2022/08/30 06:47:28;;;;;;;6.03;3.90;;;;;;;;;;5036191;28;20554;-75
2022/08/30 06:49:54;;;;;;;5.57;3.33;;;;;;;;;;5052774;28;20185;-76
2022/08/30 06:52:20;;;;;;;3.67;3.00;;;;;;;;;;5036194;28;20212;-76
2022/08/30 06:54:46;;;;;;;5.93;3.57;;;;;;;;;;5036563;28;20268;-77
2022/08/30 06:57:12;;;;;;;4.53;3.20;;;;;;;;;;5052689;28;20235;-76
2022/08/30 07:00:05;;;;;;;4.03;2.83;;;;;;;;;;5036429;28;20228;-76
2022/08/30 07:02:31;;;;;;;7.50;3.23;;;;;;;;;;5050811;28;20247;-76
2022/08/30 07:04:57;;;;;;;4.03;3.50;;;;;;;;;;5024387;28;20186;-76
2022/08/30 07:07:23;;;;;;;4.77;3.50;;;;;;;;;;5035282;28;20204;-75
2022/08/30 07:09:49;;;;;;;5.90;3.40;;;;;;;;;;5035703;28;20318;-76
2022/08/30 07:12:16;;;;;;;6.07;3.13;;;;;;;;;;5035562;28;20206;-76
2022/08/30 07:14:42;;;;;;;3.83;2.80;;;;;;;;;;5035848;28;20182;-77
2022/08/30 07:19:53;;;;;;;5.97;3.27;;;;;;;;;;5054210;28;20204;-77
2022/08/30 07:22:19;;;;;;;4.77;3.10;;;;;;;;;;5052938;28;20567;-76
2022/08/30 07:24:46;;;;;;;4.90;2.67;;;;;;;;;;5052821;28;20188;-76
2022/08/30 07:27:12;;;;;;;3.87;2.80;;;;;;;;;;5052281;28;20243;-76
2022/08/30 07:29:38;;;;;;;3.53;2.63;;;;;;;;;;5052448;28;20178;-76
2022/08/30 07:32:04;;;;;;;3.70;2.57;;;;;;;;;;5035725;28;20221;-77
2022/08/30 07:34:30;;;;;;;4.27;3.00;;;;;;;;;;5052284;28;20238;-76
2022/08/30 07:36:56;;;;;;;5.43;2.77;;;;;;;;;;5053434;28;20264;-76
2022/08/30 07:39:23;;;;;;;4.43;2.87;;;;;;;;;;5035535;28;20174;-76
2022/08/30 07:41:49;;;;;;;3.60;2.53;;;;;;;;;;5051912;28;20193;-77
2022/08/30 07:44:15;;;;;;;4.93;2.83;;;;;;;;;;5053102;28;20216;-81
2022/08/30 07:46:41;;;;;;;3.70;2.50;;;;;;;;;;5051529;28;20205;-78
2022/08/30 07:49:08;;;;;;;5.87;2.70;;;;;;;;;;5051479;28;20213;-76
2022/08/30 07:51:35;;;;;;;3.20;2.40;;;;;;;;;;5051512;28;20197;-76
2022/08/30 07:54:01;;;;;;;3.70;2.73;;;;;;;;;;5051735;28;20174;-78
2022/08/30 07:56:27;;;;;;;3.90;2.40;;;;;;;;;;5051487;28;20232;-76
2022/08/30 07:58:53;;;;;;;3.60;2.67;;;;;;;;;;5034473;28;20203;-76
2022/08/30 08:01:20;;;;;;;3.70;2.70;;;;;;;;;;5034498;28;20204;-76
2022/08/30 08:03:49;;;;;;;3.77;2.70;;;;;;;;;;5051257;28;20213;-76
2022/08/30 08:06:15;;;;;;;4.10;2.50;;;;;;;;;;5051057;28;20268;-76
2022/08/30 08:08:44;;;;;;;3.13;2.40;;;;;;;;;;5051038;28;20213;-75
2022/08/30 08:11:13;;;;;;;3.30;2.57;;;;;;;;;;5051007;28;20178;-75
2022/08/30 08:13:39;;;;;;;4.43;2.40;;;;;;;;;;5052037;28;20197;-74
2022/08/30 08:16:05;;;;;;;4.40;2.90;;;;;;;;;;5034650;28;20268;-75
2022/08/30 08:18:31;;;;;;;3.67;2.67;;;;;;;;;;5051019;28;20280;-75
2022/08/30 08:20:57;;;;;;;5.53;2.40;;;;;;;;;;5052200;28;20193;-75
2022/08/30 08:23:24;;;;;;;3.40;2.70;;;;;;;;;;5050869;28;20181;-76
2022/08/30 08:25:50;;;;;;;6.50;2.90;;;;;;;;;;5050336;28;20647;-75
2022/08/30 08:28:16;;;;;;;3.33;2.50;;;;;;;;;;5025490;28;20190;-75
2022/08/30 08:30:42;;;;;;;3.67;2.50;;;;;;;;;;5039255;28;20185;-75
2022/08/30 08:33:09;;;;;;;3.90;2.27;;;;;;;;;;5042261;28;20209;-75
2022/08/30 08:35:35;;;;;;;4.10;2.60;;;;;;;;;;5051887;28;20644;-75
2022/08/30 08:38:01;;;;;;;3.53;2.47;;;;;;;;;;5051788;28;20706;-76
2022/08/30 08:40:27;;;;;;;5.03;2.50;;;;;;;;;;5052028;28;20227;-80
2022/08/30 08:42:56;;;;;;;5.40;2.70;;;;;;;;;;5050929;28;20213;-75
2022/08/30 08:45:30;;;;;;;3.13;2.50;;;;;;;;;;5050967;28;20269;-75
2022/08/30 08:48:16;;;;;;;3.77;2.50;;;;;;;;;;5052021;28;20174;-75
2022/08/30 08:53:33;;;;;;;3.60;2.50;;;;;;;;;;5050558;28;20277;-76
2022/08/30 08:53:35;;;;;;;4.53;2.50;;;;;;;;;;5050601;28;20209;-76
2022/08/30 08:56:03;;;;;;;6.90;2.73;;;;;;;;;;5050655;28;20188;-76
2022/08/30 08:58:31;;;;;;;4.80;2.70;;;;;;;;;;5049232;28;20307;-76
2022/08/30 09:00:57;;;;;;;3.13;2.53;;;;;;;;;;5034078;28;20205;-76
2022/08/30 09:03:25;;;;;;;4.33;2.73;;;;;;;;;;5051694;28;20178;-76
2022/08/30 09:05:52;;;;;;;3.83;2.47;;;;;;;;;;5050715;28;20181;-76
2022/08/30 09:08:19;;;;;;;4.80;2.50;;;;;;;;;;5050211;28;20185;-76
2022/08/30 09:11:00;;;;;;;5.53;2.70;;;;;;;;;;5050574;28;20186;-76
2022/08/30 09:13:26;;;;;;;2.95;2.35;;;;;;;;;;5050213;28;20584;-76
2022/08/30 09:15:53;;;;;;;4.95;2.50;;;;;;;;;;5050273;28;20249;-77
2022/08/30 09:18:19;;;;;;;4.25;2.70;;;;;;;;;;5050026;28;20181;-76
2022/08/30 09:20:47;;;;;;;5.60;2.25;;;;;;;;;;5050619;28;20212;-76
2022/08/30 09:23:13;;;;;;;4.18;2.58;;;;;;;;;;5050437;28;20190;-76
2022/08/30 09:25:50;;;;;;;3.33;2.22;;;;;;;;;;5051531;28;20519;-76
2022/08/30 09:28:20;;;;;;;4.35;2.25;;;;;;;;;;5050109;28;20197;-76
2022/08/30 09:30:58;;;;;;;3.20;2.35;;;;;;;;;;5051373;28;20181;-76
2022/08/30 09:33:24;;;;;;;3.42;2.28;;;;;;;;;;5051512;28;20207;-76
2022/08/30 09:35:51;;;;;;;3.90;2.40;;;;;;;;;;5033649;28;20170;-76
2022/08/30 09:38:16;;;;;;;4.13;2.38;;;;;;;;;;5050261;28;20529;-76
2022/08/30 09:40:42;;;;;;;4.10;2.10;;;;;;;;;;5053781;28;20184;-76
2022/08/30 09:43:18;;;;;;;2.97;2.42;;;;;;;;;;5053462;28;20672;-76
2022/08/30 09:45:59;;;;;;;4.10;2.30;;;;;;;;;;5053385;28;20177;-76
2022/08/30 09:48:33;;;;;;;4.88;2.20;;;;;;;;;;5053331;28;20177;-76
2022/08/30 09:51:12;;;;;;;3.15;2.15;;;;;;;;;;5053464;28;20169;-76
2022/08/30 09:53:38;;;;;;;3.08;2.55;;;;;;;;;;5053365;28;20200;-76
2022/08/30 09:56:15;;;;;;;4.53;2.42;;;;;;;;;;5053421;28;20173;-76
2022/08/30 09:58:55;;;;;;;2.80;2.05;;;;;;;;;;5053073;28;20174;-76
2022/08/30 10:01:21;;;;;;;2.63;2.10;;;;;;;;;;5054534;28;20189;-76
2022/08/30 10:04:10;;;;;;;2.70;1.95;;;;;;;;;;5053188;28;20180;-76
2022/08/30 10:06:45;;;;;;;2.78;1.90;;;;;;;;;;5052717;28;20181;-76
2022/08/30 10:09:17;;;;;;;4.28;2.22;;;;;;;;;;5053056;28;20174;-75
2022/08/30 10:11:56;;;;;;;3.25;2.30;;;;;;;;;;5053235;28;20208;-76
2022/08/30 10:14:41;;;;;;;3.25;2.15;;;;;;;;;;5053081;28;20169;-76
2022/08/30 10:17:26;;;;;;;3.08;2.10;;;;;;;;;;5052990;28;20173;-76
2022/08/30 10:20:06;;;;;;;3.30;2.10;;;;;;;;;;5052974;28;20566;-76
2022/08/30 10:22:37;;;;;;;2.67;2.10;;;;;;;;;;5054164;28;20189;-76
2022/08/30 10:25:10;;;;;;;3.22;2.03;;;;;;;;;;5036486;28;20209;-76
2022/08/30 10:27:49;;;;;;;3.08;2.17;;;;;;;;;;5052527;28;20176;-76
2022/08/30 10:30:16;;;;;;;4.72;2.72;;;;;;;;;;5053991;28;20260;-76
2022/08/30 10:32:54;;;;;;;4.28;2.20;;;;;;;;;;5071134;22;20286;-77
2022/08/30 10:35:26;;;;;;;4.38;2.35;;;;;;;;;;5072712;28;20195;-77
2022/08/30 10:37:55;;;;;;;4.38;2.10;;;;;;;;;;5073761;28;20172;-77
2022/08/30 10:43:30;;;;;;;3.78;2.42;;;;;;;;;;5074018;28;20580;-77
2022/08/30 10:45:58;;;;;;;3.95;2.10;;;;;;;;;;5072511;28;20657;-77
2022/08/30 10:48:27;;;;;;;3.03;2.25;;;;;;;;;;5055975;28;20180;-77
2022/08/30 10:50:55;;;;;;;2.55;2.35;;;;;;;;;;5071920;28;20230;-77
2022/08/30 10:53:29;;;;;;;3.95;2.53;;;;;;;;;;5072403;28;20213;-78
2022/08/30 10:56:04;;;;;;;3.85;2.15;;;;;;;;;;5072245;28;20264;-77
2022/08/30 10:58:31;;;;;;;4.15;2.28;;;;;;;;;;5071992;28;20174;-77
2022/08/30 11:01:14;;;;;;;3.17;2.35;;;;;;;;;;5072299;28;20161;-77
2022/08/30 11:04:00;;;;;;;5.15;2.40;;;;;;;;;;5072292;28;20240;-78
2022/08/30 11:06:41;;;;;;;2.30;2.08;;;;;;;;;;5072010;28;20177;-77
2022/08/30 11:09:26;;;;;;;3.78;2.25;;;;;;;;;;5072025;28;20183;-77
2022/08/30 11:12:09;;;;;;;3.90;2.20;;;;;;;;;;5071868;28;20197;-77
2022/08/30 11:14:38;;;;;;;2.55;2.10;;;;;;;;;;5071966;28;20309;-77
2022/08/30 11:17:04;;;;;;;5.07;2.30;;;;;;;;;;5071658;28;20237;-77
2022/08/30 11:19:36;;;;;;;4.03;2.15;;;;;;;;;;5071814;28;20264;-77
2022/08/30 11:22:21;;;;;;;2.95;2.20;;;;;;;;;;5071798;28;20192;-77
2022/08/30 11:24:58;;;;;;;3.63;2.40;;;;;;;;;;5071796;28;20177;-78
2022/08/30 11:27:40;;;;;;;3.33;2.00;;;;;;;;;;5071497;28;20183;-78
2022/08/30 11:30:24;;;;;;;3.40;2.13;;;;;;;;;;5071902;28;20169;-78
2022/08/30 11:33:00;;;;;;;2.97;2.20;;;;;;;;;;5071524;28;20208;-78
2022/08/30 11:35:48;;;;;;;3.83;2.28;;;;;;;;;;5071599;28;20169;-77
2022/08/30 11:38:27;;;;;;;5.18;2.30;;;;;;;;;;5071532;28;20173;-78
2022/08/30 11:40:59;;;;;;;3.13;2.40;;;;;;;;;;5071504;28;20173;-77
2022/08/30 11:43:34;;;;;;;2.60;2.13;;;;;;;;;;5071418;28;20193;-78
2022/08/30 11:46:18;;;;;;;5.50;2.30;;;;;;;;;;5071304;28;20172;-78
2022/08/30 11:48:50;;;;;;;3.28;2.17;;;;;;;;;;5054712;28;20176;-77
2022/08/30 11:51:29;;;;;;;3.20;2.35;;;;;;;;;;5071175;28;20642;-78
2022/08/30 11:54:01;;;;;;;3.00;2.10;;;;;;;;;;5071295;28;20204;-78
2022/08/30 11:56:46;;;;;;;3.05;2.20;;;;;;;;;;5071069;28;20226;-78
2022/08/30 11:59:31;;;;;;;4.35;2.70;;;;;;;;;;5071324;28;20169;-77
2022/08/30 12:01:57;;;;;;;4.68;2.72;;;;;;;;;;5070473;28;20284;-78
2022/08/30 12:04:23;;;;;;;3.78;2.33;;;;;;;;;;5071073;28;20181;-78
2022/08/30 12:06:55;;;;;;;5.57;2.42;;;;;;;;;;5070854;28;20651;-77
2022/08/30 12:09:25;;;;;;;3.35;2.20;;;;;;;;;;5054622;28;20554;-77
2022/08/30 12:11:51;;;;;;;5.88;2.13;;;;;;;;;;5071028;28;20232;-78
2022/08/30 12:14:35;;;;;;;6.35;2.40;;;;;;;;;;5071002;28;20204;-78
2022/08/30 12:19:49;;;;;;;3.55;2.22;;;;;;;;;;5071441;28;20219;-78
2022/08/30 12:22:16;;;;;;;3.55;2.40;;;;;;;;;;5071127;28;20280;-78
2022/08/30 12:24:46;;;;;;;3.95;2.40;;;;;;;;;;5054220;28;20177;-78
2022/08/30 12:27:21;;;;;;;3.10;2.35;;;;;;;;;;5071970;28;20172;-78
2022/08/30 12:30:13;;;;;;;2.58;2.22;;;;;;;;;;5070851;28;20729;-78
2022/08/30 12:32:45;;;;;;;3.58;2.33;;;;;;;;;;5067788;28;20729;-77
2022/08/30 12:35:18;;;;;;;2.30;2.10;;;;;;;;;;5070894;28;20573;-77
2022/08/30 12:37:53;;;;;;;4.10;2.53;;;;;;;;;;5070590;28;20204;-77
2022/08/30 12:40:21;;;;;;;3.35;2.45;;;;;;;;;;5070706;28;20171;-77
2022/08/30 12:42:53;;;;;;;2.58;2.25;;;;;;;;;;5071785;28;20196;-77
2022/08/30 12:45:20;;;;;;;4.00;2.50;;;;;;;;;;5054431;28;20176;-77
2022/08/30 12:47:51;;;;;;;3.08;2.50;;;;;;;;;;5070822;28;20627;-77
2022/08/30 12:50:19;;;;;;;4.22;2.50;;;;;;;;;;5054074;28;20271;-77
2022/08/30 12:52:47;;;;;;;4.10;2.42;;;;;;;;;;5070464;28;20204;-77
2022/08/30 12:55:17;;;;;;;2.60;2.40;;;;;;;;;;5070729;28;20173;-77
2022/08/30 12:57:53;;;;;;;5.80;2.47;;;;;;;;;;5070551;28;20188;-77
2022/08/30 13:00:28;;;;;;;2.65;2.35;;;;;;;;;;5070132;28;20264;-77
2022/08/30 13:02:56;;;;;;;4.03;2.65;;;;;;;;;;5070534;28;20196;-78
2022/08/30 13:05:41;;;;;;;4.13;2.33;;;;;;;;;;5070484;28;20658;-77
2022/08/30 13:08:09;;;;;;;3.55;2.35;;;;;;;;;;5070553;28;20173;-77
2022/08/30 13:10:35;;;;;;;3.55;2.22;;;;;;;;;;5070422;28;20169;-77
2022/08/30 13:13:03;;;;;;;2.60;2.20;;;;;;;;;;5053633;28;20212;-77
2022/08/30 13:15:34;;;;;;;3.35;2.40;;;;;;;;;;5075380;28;20172;-77
2022/08/30 13:18:10;;;;;;;3.10;2.17;;;;;;;;;;5057804;28;20542;-77
2022/08/30 13:20:36;;;;;;;5.40;2.30;;;;;;;;;;5074261;28;20263;-77
2022/08/30 13:23:07;;;;;;;2.78;2.30;;;;;;;;;;5057922;28;20291;-78
2022/08/30 13:25:34;;;;;;;3.05;2.08;;;;;;;;;;5058605;28;20177;-79
2022/08/30 13:28:00;;;;;;;3.67;2.20;;;;;;;;;;5058906;28;20177;-78
2022/08/30 13:30:26;;;;;;;3.22;2.47;;;;;;;;;;5074639;28;20173;-78
2022/08/30 13:32:52;;;;;;;4.28;2.20;;;;;;;;;;5074954;28;20217;-79
2022/08/30 13:35:18;;;;;;;3.17;2.58;;;;;;;;;;5058444;28;20180;-79
2022/08/30 13:37:44;;;;;;;3.60;2.63;;;;;;;;;;5074117;28;20195;-78
2022/08/30 13:40:11;;;;;;;3.55;2.30;;;;;;;;;;5057142;28;20294;-77
2022/08/30 13:42:39;;;;;;;4.00;2.47;;;;;;;;;;5075154;28;20193;-78
2022/08/30 13:45:05;;;;;;;3.42;2.40;;;;;;;;;;5073624;28;20180;-78
2022/08/30 13:47:31;;;;;;;3.17;2.25;;;;;;;;;;5057360;28;20176;-78
2022/08/30 13:49:57;;;;;;;4.25;2.28;;;;;;;;;;5074378;28;20173;-78
2022/08/30 13:52:24;;;;;;;3.22;2.38;;;;;;;;;;5057454;28;20209;-78
2022/08/30 13:54:51;;;;;;;4.07;2.28;;;;;;;;;;5072794;28;20218;-78
2022/08/30 13:57:19;;;;;;;2.88;2.50;;;;;;;;;;5073363;28;20181;-78
2022/08/30 13:59:45;;;;;;;3.15;2.38;;;;;;;;;;5073598;28;20246;-78
2022/08/30 14:02:11;;;;;;;3.13;2.53;;;;;;;;;;5073315;28;20260;-78
2022/08/30 14:04:37;;;;;;;3.05;2.33;;;;;;;;;;5073465;28;20180;-78
2022/08/30 14:07:03;;;;;;;3.85;2.50;;;;;;;;;;5073154;28;20183;-78
2022/08/30 14:09:29;;;;;;;2.67;2.13;;;;;;;;;;5073453;28;20181;-78
2022/08/30 14:11:55;;;;;;;4.47;2.50;;;;;;;;;;5073095;28;20193;-78
2022/08/30 14:14:21;;;;;;;3.05;2.35;;;;;;;;;;5073394;28;20180;-78
2022/08/30 14:16:47;;;;;;;2.95;2.25;;;;;;;;;;5056716;28;20235;-78
2022/08/30 14:19:15;;;;;;;4.03;2.47;;;;;;;;;;5073257;28;20779;-78
2022/08/30 14:21:41;;;;;;;4.78;2.20;;;;;;;;;;5073188;28;20177;-78
2022/08/30 14:24:07;;;;;;;3.08;2.10;;;;;;;;;;5072969;28;20169;-78
2022/08/30 14:26:38;;;;;;;3.85;2.20;;;;;;;;;;5073158;28;20169;-78
2022/08/30 14:29:06;;;;;;;3.33;2.40;;;;;;;;;;5074257;28;20181;-78
2022/08/30 14:31:32;;;;;;;2.78;2.25;;;;;;;;;;5074270;28;20253;-78
2022/08/30 14:33:58;;;;;;;4.50;2.53;;;;;;;;;;5072918;28;20675;-78
2022/08/30 14:36:24;;;;;;;2.85;2.50;;;;;;;;;;5072842;28;20203;-78
2022/08/30 14:38:50;;;;;;;3.15;2.13;;;;;;;;;;5072670;28;20165;-78
2022/08/30 14:41:16;;;;;;;2.67;2.42;;;;;;;;;;5072651;28;20659;-78
2022/08/30 14:43:42;;;;;;;3.42;2.33;;;;;;;;;;5074201;28;20654;-78
2022/08/30 14:46:08;;;;;;;2.97;2.20;;;;;;;;;;5056032;28;20173;-78
2022/08/30 14:48:35;;;;;;;5.07;2.30;;;;;;;;;;5055870;28;20180;-78
2022/08/30 14:51:01;;;;;;;2.85;2.25;;;;;;;;;;5072545;28;20169;-78
2022/08/30 14:53:27;;;;;;;4.38;2.67;;;;;;;;;;5072294;28;20234;-78
2022/08/30 14:55:53;;;;;;;5.15;2.42;;;;;;;;;;5055644;28;20173;-78
2022/08/30 14:58:19;;;;;;;5.45;2.55;;;;;;;;;;5072160;28;20169;-78
2022/08/30 15:00:51;;;;;;;4.55;2.60;;;;;;;;;;5055929;28;20174;-78